Time;durP1;ratioP1;P1;durP2;ratioP2;P2;SDS_P1;SDS_P2;PMS_P1;PMS_P2;Temp;Humidity;BMP_temperature;BMP_pressure;BME280_temperature;BME280_humidity;BME280_pressure;Samples;Min_cycle;Max_cycle;Signal;HPM_P1;HPM_P2
2021/10/04 00:00:25;;;;;;;0.32;0.30;;;;;;;16.40;86.59;100505.66;5008628;28;20037;-68
2021/10/04 00:02:51;;;;;;;0.28;0.20;;;;;;;16.32;87.22;100496.78;5008210;28;20029;-68
2021/10/04 00:05:17;;;;;;;0.20;0.20;;;;;;;16.36;86.33;100499.47;5014197;28;20884;-69
2021/10/04 00:07:42;;;;;;;0.22;0.22;;;;;;;16.25;86.99;100497.59;5005898;28;20034;-67
2021/10/04 00:10:11;;;;;;;0.20;0.20;;;;;;;16.22;87.38;100497.59;5009156;28;20037;-69
2021/10/04 00:12:36;;;;;;;0.28;0.25;;;;;;;16.22;86.95;100495.66;5015240;28;20491;-69
2021/10/04 00:15:05;;;;;;;0.20;0.20;;;;;;;16.13;87.51;100502.69;4994423;28;20036;-74
2021/10/04 00:17:30;;;;;;;2.85;0.28;;;;;;;16.12;86.96;100523.66;5021303;28;20045;-69
2021/10/04 00:19:56;;;;;;;0.38;0.38;;;;;;;16.07;88.10;100518.66;5020076;28;20048;-69
2021/10/04 00:22:21;;;;;;;0.20;0.20;;;;;;;16.08;87.95;100519.44;5008045;28;20033;-68
2021/10/04 00:24:47;;;;;;;0.22;0.20;;;;;;;16.09;88.08;100519.03;5018787;28;20041;-68
2021/10/04 00:27:12;;;;;;;0.30;0.20;;;;;;;16.10;88.20;100523.28;5006727;28;20014;-69
2021/10/04 00:29:38;;;;;;;0.30;0.20;;;;;;;16.04;87.90;100540.41;4989845;28;20045;-68
2021/10/04 00:32:04;;;;;;;0.28;0.28;;;;;;;15.95;88.50;100542.78;5008162;28;20101;-68
2021/10/04 00:34:29;;;;;;;0.32;0.30;;;;;;;15.95;88.35;100529.94;5006259;28;20037;-68
2021/10/04 00:36:55;;;;;;;0.30;0.30;;;;;;;15.94;88.51;100533.84;5016494;28;20030;-67
2021/10/04 00:39:20;;;;;;;0.38;0.20;;;;;;;15.95;88.33;100538.09;5015981;28;20448;-68
2021/10/04 00:41:46;;;;;;;0.30;0.30;;;;;;;15.96;88.37;100550.53;5003491;28;20029;-69
2021/10/04 00:44:11;;;;;;;0.60;0.10;;;;;;;15.95;88.05;100553.63;5004707;28;20478;-68
2021/10/04 00:46:37;;;;;;;0.30;0.20;;;;;;;15.84;88.71;100555.59;5016165;28;20034;-68
2021/10/04 00:49:03;;;;;;;1.98;0.22;;;;;;;15.81;89.30;100550.97;5014180;28;20037;-69
2021/10/04 00:51:28;;;;;;;0.50;0.20;;;;;;;15.82;89.10;100558.72;5013810;28;20037;-69
2021/10/04 00:53:54;;;;;;;1.70;0.30;;;;;;;15.83;88.51;100554.81;5005656;28;20030;-68
2021/10/04 00:56:20;;;;;;;2.13;0.30;;;;;;;15.80;88.86;100557.53;5013539;28;20613;-68
2021/10/04 00:58:47;;;;;;;1.67;0.30;;;;;;;15.82;88.51;100553.28;5015420;28;20038;-68
2021/10/04 01:01:13;;;;;;;0.47;0.30;;;;;;;15.81;88.73;100553.69;5003804;28;20034;-69
2021/10/04 01:03:38;;;;;;;0.95;0.45;;;;;;;15.80;89.03;100549.41;5005089;28;20129;-68
2021/10/04 01:06:04;;;;;;;0.30;0.30;;;;;;;15.79;88.85;100556.00;5016367;28;20057;-68
2021/10/04 01:08:30;;;;;;;2.15;0.25;;;;;;;15.72;88.70;100562.22;5013090;28;20030;-69
2021/10/04 01:10:56;;;;;;;0.30;0.20;;;;;;;15.66;88.82;100571.16;5007583;28;20030;-68
2021/10/04 01:13:22;;;;;;;0.30;0.30;;;;;;;15.64;88.96;100579.69;5010631;28;20092;-68
2021/10/04 01:15:48;;;;;;;0.75;0.50;;;;;;;15.62;88.78;100581.25;5001811;28;20027;-69
2021/10/04 01:18:14;;;;;;;0.73;0.20;;;;;;;15.65;88.86;100592.09;5006288;28;20034;-70
2021/10/04 01:20:39;;;;;;;0.90;0.35;;;;;;;15.55;88.54;100595.59;5013296;28;20054;-69
2021/10/04 01:23:05;;;;;;;0.32;0.28;;;;;;;15.47;89.15;100585.91;5012969;28;20084;-69
2021/10/04 01:25:31;;;;;;;0.30;0.30;;;;;;;15.48;89.67;100582.06;5013014;28;20113;-69
2021/10/04 01:27:57;;;;;;;2.13;0.40;;;;;;;15.42;89.58;100575.47;5009989;28;20777;-70
2021/10/04 01:30:25;;;;;;;0.30;0.30;;;;;;;15.43;89.26;100584.38;5003429;28;20121;-67
2021/10/04 01:32:52;;;;;;;0.63;0.50;;;;;;;15.44;89.33;100589.41;5012793;28;20095;-68
2021/10/04 01:35:18;;;;;;;1.20;0.30;;;;;;;15.41;89.40;100586.69;4993047;28;20038;-69
2021/10/04 01:37:45;;;;;;;0.50;0.30;;;;;;;15.38;88.92;100580.88;5012087;28;20367;-69
2021/10/04 01:40:12;;;;;;;0.32;0.30;;;;;;;15.32;89.30;100584.34;5012987;28;20038;-71
2021/10/04 01:42:39;;;;;;;0.30;0.30;;;;;;;15.29;89.64;100590.56;4999669;28;20030;-68
2021/10/04 01:45:09;;;;;;;0.40;0.40;;;;;;;15.31;89.07;100590.94;5007349;28;20110;-67
2021/10/04 01:47:36;;;;;;;0.53;0.40;;;;;;;15.19;89.95;100604.88;5010721;28;20036;-67
2021/10/04 01:50:03;;;;;;;0.20;0.20;;;;;;;15.22;90.03;100614.97;4996107;28;20295;-68
2021/10/04 01:52:29;;;;;;;1.08;0.32;;;;;;;15.30;89.69;100608.38;5010602;28;20629;-68
2021/10/04 01:54:55;;;;;;;1.58;0.40;;;;;;;15.26;89.90;100608.38;5010440;28;20025;-67
2021/10/04 01:57:20;;;;;;;0.32;0.30;;;;;;;15.24;89.68;100609.91;5012084;28;20038;-67
2021/10/04 01:59:46;;;;;;;0.45;0.40;;;;;;;15.22;89.96;100634.72;5009617;28;20041;-68
2021/10/04 02:02:11;;;;;;;0.70;0.35;;;;;;;15.23;89.76;100635.50;5009780;28;20029;-68
2021/10/04 02:04:37;;;;;;;2.10;0.43;;;;;;;15.22;90.07;100642.09;5012178;28;20048;-68
2021/10/04 02:07:02;;;;;;;1.85;0.30;;;;;;;15.19;90.03;100651.75;4984277;28;20446;-67
2021/10/04 02:09:28;;;;;;;1.13;0.40;;;;;;;15.18;90.25;100646.72;5011396;28;20490;-67
2021/10/04 02:11:53;;;;;;;1.48;0.30;;;;;;;15.14;90.00;100644.03;4997100;28;20034;-68
2021/10/04 02:14:19;;;;;;;0.30;0.30;;;;;;;15.18;89.65;100642.09;5018600;22;20632;-64
2021/10/04 02:16:44;;;;;;;0.43;0.30;;;;;;;15.19;89.79;100645.59;5006027;28;20046;-64
2021/10/04 02:19:11;;;;;;;2.72;0.40;;;;;;;15.17;89.79;100653.34;4997806;28;20026;-64
2021/10/04 02:21:36;;;;;;;0.63;0.30;;;;;;;15.15;90.17;100644.81;5004545;28;20042;-64
2021/10/04 02:24:02;;;;;;;0.50;0.40;;;;;;;15.13;89.85;100658.75;5009153;28;20038;-64
2021/10/04 02:26:28;;;;;;;0.73;0.32;;;;;;;15.13;89.83;100656.03;5005540;28;20025;-65
2021/10/04 02:28:54;;;;;;;1.15;0.38;;;;;;;15.10;90.01;100664.16;5011087;28;20049;-64
2021/10/04 02:31:20;;;;;;;0.43;0.30;;;;;;;15.06;90.32;100668.81;5010172;28;20110;-64
2021/10/04 02:33:45;;;;;;;2.03;0.40;;;;;;;15.06;90.08;100674.25;5006048;28;20475;-64
2021/10/04 02:36:11;;;;;;;2.65;0.50;;;;;;;15.03;90.33;100670.34;5008836;28;20030;-64
2021/10/04 02:38:36;;;;;;;1.85;0.40;;;;;;;15.01;90.08;100671.88;5006098;28;20034;-64
2021/10/04 02:41:02;;;;;;;0.40;0.40;;;;;;;15.05;90.04;100672.69;5006501;28;20037;-64
2021/10/04 02:43:27;;;;;;;1.30;0.77;;;;;;;15.00;90.23;100668.41;5008835;28;20040;-64
2021/10/04 02:45:54;;;;;;;0.73;0.30;;;;;;;15.03;90.05;100653.31;5011320;28;20022;-64
2021/10/04 02:48:21;;;;;;;1.80;0.35;;;;;;;14.99;89.98;100650.59;5010126;28;20061;-65
2021/10/04 02:50:47;;;;;;;2.83;0.50;;;;;;;14.99;90.06;100663.38;5004385;28;20492;-64
2021/10/04 02:53:13;;;;;;;3.03;0.50;;;;;;;14.91;90.83;100653.66;5001002;28;20038;-64
2021/10/04 02:55:39;;;;;;;0.20;0.20;;;;;;;14.89;90.96;100647.84;5004057;28;20096;-64
2021/10/04 02:58:05;;;;;;;0.88;0.50;;;;;;;14.82;91.37;100647.81;5010665;28;20045;-64
2021/10/04 03:00:34;;;;;;;0.35;0.32;;;;;;;14.84;91.05;100653.63;5004837;28;20060;-64
2021/10/04 03:03:00;;;;;;;1.67;0.60;;;;;;;14.79;91.49;100657.50;5010390;28;20399;-64
2021/10/04 03:05:26;;;;;;;4.63;0.40;;;;;;;14.87;90.69;100656.34;4980869;28;20038;-64
2021/10/04 03:07:51;;;;;;;2.08;0.60;;;;;;;14.81;91.08;100649.75;5005458;28;20676;-64
2021/10/04 03:10:17;;;;;;;1.55;0.47;;;;;;;14.75;91.43;100658.66;5007902;28;20601;-64
2021/10/04 03:12:42;;;;;;;0.60;0.50;;;;;;;14.76;91.78;100649.34;5008237;28;20037;-64
2021/10/04 03:15:08;;;;;;;1.23;0.30;;;;;;;14.78;91.59;100647.81;5001987;28;20034;-64
2021/10/04 03:17:33;;;;;;;0.60;0.47;;;;;;;14.83;91.39;100649.38;4997576;28;20510;-64
2021/10/04 03:19:59;;;;;;;0.70;0.60;;;;;;;14.76;91.67;100660.19;4992952;28;20041;-64
2021/10/04 03:22:24;;;;;;;3.17;0.60;;;;;;;14.74;91.96;100665.22;4997696;28;20033;-64
2021/10/04 03:24:50;;;;;;;1.85;0.60;;;;;;;14.74;91.54;100670.66;4992791;28;20034;-64
2021/10/04 03:27:16;;;;;;;0.45;0.40;;;;;;;14.76;91.57;100673.75;5008835;28;20494;-64
2021/10/04 03:29:41;;;;;;;0.80;0.60;;;;;;;14.76;91.80;100668.34;4996178;28;20041;-64
2021/10/04 03:32:07;;;;;;;0.68;0.50;;;;;;;14.75;91.42;100681.09;4991080;28;20034;-64
2021/10/04 03:34:33;;;;;;;0.60;0.50;;;;;;;14.75;91.65;100683.06;4992862;28;20252;-64
2021/10/04 03:37:00;;;;;;;0.50;0.50;;;;;;;14.75;91.79;100683.06;5004858;28;20034;-64
2021/10/04 03:39:26;;;;;;;1.15;0.50;;;;;;;14.67;92.40;100681.47;4976971;28;20042;-64
2021/10/04 03:41:52;;;;;;;1.30;0.50;;;;;;;14.69;92.10;100682.63;5010372;28;20517;-64
2021/10/04 03:44:17;;;;;;;0.90;0.47;;;;;;;14.65;92.19;100691.91;5001211;28;20034;-64
2021/10/04 03:46:43;;;;;;;1.55;0.60;;;;;;;14.67;92.29;100678.75;5005650;28;20054;-64
2021/10/04 03:49:10;;;;;;;1.48;0.70;;;;;;;14.63;91.88;100680.69;5007869;28;20402;-65
2021/10/04 03:51:36;;;;;;;3.00;1.02;;;;;;;14.63;92.20;100688.81;5006039;28;20062;-65
2021/10/04 03:54:02;;;;;;;1.02;0.50;;;;;;;14.59;92.46;100688.03;5005330;28;20034;-65
2021/10/04 03:56:28;;;;;;;2.22;0.80;;;;;;;14.60;92.17;100684.91;5010274;28;20048;-65
2021/10/04 03:58:53;;;;;;;2.17;1.17;;;;;;;14.56;92.73;100686.84;5008824;28;20034;-65
2021/10/04 04:01:19;;;;;;;1.20;0.73;;;;;;;14.57;91.91;100685.69;5010521;28;20045;-65
2021/10/04 04:03:44;;;;;;;2.65;0.77;;;;;;;14.53;92.35;100678.69;4999011;28;20070;-64
2021/10/04 04:06:10;;;;;;;1.10;0.70;;;;;;;14.51;93.03;100681.78;5009612;28;20037;-65
2021/10/04 04:08:38;;;;;;;0.85;0.63;;;;;;;14.42;93.36;100679.41;5009128;28;20038;-64
2021/10/04 04:11:04;;;;;;;1.15;0.90;;;;;;;14.48;93.30;100691.44;5004825;28;20092;-65
2021/10/04 04:13:30;;;;;;;1.65;1.17;;;;;;;14.47;93.30;100686.41;4999825;28;20034;-65
2021/10/04 04:15:55;;;;;;;2.00;1.17;;;;;;;14.46;93.45;100696.47;5000167;28;20048;-65
2021/10/04 04:18:21;;;;;;;1.50;0.90;;;;;;;14.42;93.29;100690.25;5009542;28;20038;-65
2021/10/04 04:20:46;;;;;;;1.38;0.70;;;;;;;14.45;93.30;100699.56;4998448;28;20057;-64
2021/10/04 04:23:12;;;;;;;1.52;0.90;;;;;;;14.36;94.12;100696.44;5008926;28;20034;-65
2021/10/04 04:25:37;;;;;;;1.80;1.00;;;;;;;14.36;94.11;100702.59;4994307;28;20046;-65
2021/10/04 04:28:03;;;;;;;2.35;1.35;;;;;;;14.32;94.17;100714.59;5007998;28;20061;-65
2021/10/04 04:30:29;;;;;;;1.35;1.25;;;;;;;14.33;94.15;100714.22;5006553;28;20037;-64
2021/10/04 04:32:54;;;;;;;2.13;1.00;;;;;;;14.23;94.75;100720.31;5009163;28;20042;-65
2021/10/04 04:35:20;;;;;;;1.02;0.93;;;;;;;14.23;94.60;100719.50;4988312;28;20026;-65
2021/10/04 04:37:46;;;;;;;1.63;0.88;;;;;;;14.26;94.80;100729.63;5008171;28;20057;-65
2021/10/04 04:40:15;;;;;;;1.83;1.10;;;;;;;14.24;95.23;100731.91;5002879;28;20034;-65
2021/10/04 04:42:42;;;;;;;1.30;0.80;;;;;;;14.15;95.43;100732.25;5009806;28;20030;-65
2021/10/04 04:45:09;;;;;;;1.20;0.98;;;;;;;14.18;95.48;100750.47;5000662;28;20034;-65
2021/10/04 04:47:35;;;;;;;1.00;0.70;;;;;;;14.24;95.63;100745.47;4999205;28;20038;-65
2021/10/04 04:50:02;;;;;;;1.55;0.80;;;;;;;14.26;95.32;100738.53;5013269;28;20674;-65
2021/10/04 04:52:28;;;;;;;5.60;1.15;;;;;;;14.26;95.05;100741.25;5001916;28;20034;-65
2021/10/04 04:54:54;;;;;;;4.88;1.63;;;;;;;14.30;95.03;100731.19;5005968;28;20030;-65
2021/10/04 04:57:19;;;;;;;4.32;1.58;;;;;;;14.28;95.07;100738.97;5012322;28;20042;-65
2021/10/04 04:59:45;;;;;;;1.55;0.98;;;;;;;14.27;94.85;100742.00;5012818;28;20099;-65
2021/10/04 05:02:10;;;;;;;2.83;0.90;;;;;;;14.26;95.01;100748.56;5006200;28;20030;-65
2021/10/04 05:04:36;;;;;;;1.70;0.90;;;;;;;14.28;94.93;100744.38;5001650;28;20034;-65
2021/10/04 05:07:01;;;;;;;0.98;0.73;;;;;;;14.24;95.53;100748.19;4993425;28;20037;-65
2021/10/04 05:09:27;;;;;;;1.60;0.70;;;;;;;14.25;95.23;100750.50;4991981;28;20570;-65
2021/10/04 05:11:52;;;;;;;1.95;0.80;;;;;;;14.26;94.73;100745.88;5010580;28;20033;-65
2021/10/04 05:14:18;;;;;;;1.63;0.70;;;;;;;14.27;94.95;100766.38;5003080;28;20531;-65
2021/10/04 05:16:46;;;;;;;1.88;0.80;;;;;;;14.25;95.12;100768.69;5002851;28;20505;-65
2021/10/04 05:19:12;;;;;;;1.63;0.85;;;;;;;14.25;94.93;100780.31;5003214;28;20437;-65
2021/10/04 05:21:38;;;;;;;1.48;0.82;;;;;;;14.11;95.29;100763.94;5001464;28;20034;-65
2021/10/04 05:24:04;;;;;;;2.45;0.80;;;;;;;14.15;95.07;100764.75;4994862;28;20042;-64
2021/10/04 05:26:29;;;;;;;1.58;0.90;;;;;;;14.18;95.60;100774.06;5002519;28;20477;-64
2021/10/04 05:28:55;;;;;;;3.40;0.90;;;;;;;14.15;95.78;100785.66;4999710;28;20042;-63
2021/10/04 05:31:20;;;;;;;1.35;0.90;;;;;;;14.19;95.52;100797.28;4993559;28;20031;-64
2021/10/04 05:33:46;;;;;;;1.27;0.75;;;;;;;14.22;95.76;100789.19;4994065;28;20030;-64
2021/10/04 05:36:11;;;;;;;1.73;0.90;;;;;;;14.25;94.79;100788.44;5008496;28;20506;-63
2021/10/04 05:38:37;;;;;;;0.95;0.82;;;;;;;14.20;94.96;100790.72;5001228;28;20050;-64
2021/10/04 05:41:04;;;;;;;1.27;0.90;;;;;;;14.22;95.29;100793.81;5005349;28;20041;-65
2021/10/04 05:43:32;;;;;;;2.60;1.00;;;;;;;14.24;94.98;100786.09;5003685;28;20042;-64
2021/10/04 05:45:58;;;;;;;1.20;0.70;;;;;;;14.23;95.04;100774.47;5005344;28;20437;-64
2021/10/04 05:48:23;;;;;;;0.95;0.70;;;;;;;14.22;95.14;100775.66;4999046;28;20037;-63
2021/10/04 05:50:49;;;;;;;1.30;0.85;;;;;;;14.21;95.52;100776.78;5006823;28;20461;-63
2021/10/04 05:53:16;;;;;;;1.60;0.73;;;;;;;14.24;95.29;100770.63;5004847;28;20046;-64
2021/10/04 05:55:41;;;;;;;0.70;0.55;;;;;;;14.22;95.40;100772.16;5005881;28;20057;-67
2021/10/04 05:58:06;;;;;;;1.25;0.63;;;;;;;14.26;95.57;100779.16;5009533;28;20057;-63
2021/10/04 06:00:32;;;;;;;1.13;0.60;;;;;;;14.24;95.55;100786.09;5009250;28;20406;-64
2021/10/04 06:02:57;;;;;;;2.05;1.45;;;;;;;14.29;95.27;100789.25;5006748;28;20030;-65
2021/10/04 06:05:23;;;;;;;0.70;0.63;;;;;;;14.18;95.44;100791.09;4999028;28;20456;-64
2021/10/04 06:07:48;;;;;;;0.60;0.52;;;;;;;14.23;96.14;100789.94;5011502;28;20121;-64
2021/10/04 06:10:16;;;;;;;2.78;0.65;;;;;;;14.26;95.20;100795.41;5003428;28;20383;-65
2021/10/04 06:12:42;;;;;;;1.25;1.00;;;;;;;14.24;95.22;100776.06;5011513;28;20026;-64
2021/10/04 06:15:08;;;;;;;1.45;0.77;;;;;;;14.24;95.62;100781.47;5002710;28;20092;-66
2021/10/04 06:17:54;;;;;;;0.77;0.60;;;;;;;14.31;95.43;100781.53;5013105;28;20058;-64
2021/10/04 06:20:20;;;;;;;0.98;0.60;;;;;;;14.30;95.42;100803.59;4935427;29;20090;-64
2021/10/04 06:22:45;;;;;;;1.60;0.77;;;;;;;14.33;95.26;100800.13;4931541;29;20083;-64
2021/10/04 06:25:14;;;;;;;1.00;0.73;;;;;;;14.40;94.92;100803.66;4928926;29;20081;-64
2021/10/04 06:27:40;;;;;;;0.57;0.50;;;;;;;14.36;95.22;100800.16;4932879;29;20488;-64
2021/10/04 06:30:09;;;;;;;1.08;0.80;;;;;;;14.38;95.23;100807.91;4937232;28;20075;-66
2021/10/04 06:32:36;;;;;;;0.80;0.63;;;;;;;14.41;95.27;100812.56;4932369;28;20484;-65
2021/10/04 06:35:01;;;;;;;0.98;0.80;;;;;;;14.39;94.91;100809.47;4931635;29;20044;-64
2021/10/04 06:37:27;;;;;;;1.40;0.80;;;;;;;14.40;95.20;100822.63;4930916;29;20574;-64
2021/10/04 06:39:52;;;;;;;2.55;0.82;;;;;;;14.42;95.37;100827.66;4929894;29;20051;-64
2021/10/04 06:42:18;;;;;;;0.85;0.57;;;;;;;14.39;95.28;100831.13;4941221;29;20090;-64
2021/10/04 06:44:43;;;;;;;0.80;0.65;;;;;;;14.41;95.18;100828.84;4932304;29;20052;-64
2021/10/04 06:47:09;;;;;;;1.10;0.90;;;;;;;14.44;94.95;100831.56;4931304;29;20032;-64
2021/10/04 06:49:35;;;;;;;1.55;0.90;;;;;;;14.44;95.22;100825.34;4927313;29;20051;-64
2021/10/04 06:52:03;;;;;;;2.03;1.00;;;;;;;14.45;94.75;100819.59;4936693;29;20035;-63
2021/10/04 06:54:28;;;;;;;1.85;0.82;;;;;;;14.45;95.09;100832.34;4933769;29;20497;-64
2021/10/04 06:56:54;;;;;;;1.88;0.77;;;;;;;14.46;95.08;100834.69;4953625;28;20061;-63
2021/10/04 06:59:19;;;;;;;2.13;0.70;;;;;;;14.45;95.02;100841.25;5003676;28;20040;-64
2021/10/04 07:01:45;;;;;;;2.38;0.90;;;;;;;14.43;95.00;100849.00;5016912;28;20723;-64
2021/10/04 07:04:10;;;;;;;2.15;0.77;;;;;;;14.45;95.26;100846.69;5007040;28;20056;-64
2021/10/04 07:06:36;;;;;;;2.97;0.60;;;;;;;14.48;95.58;100855.97;5000405;28;20399;-63
2021/10/04 07:09:02;;;;;;;2.40;0.93;;;;;;;14.50;95.26;100859.09;5007351;28;20077;-64
2021/10/04 07:11:27;;;;;;;0.88;0.70;;;;;;;14.53;94.74;100863.00;4998360;28;20084;-64
2021/10/04 07:13:54;;;;;;;1.48;0.52;;;;;;;14.51;94.82;100863.38;5005348;28;20042;-64
2021/10/04 07:16:20;;;;;;;1.13;0.70;;;;;;;14.55;94.82;100866.09;5017829;28;20038;-63
2021/10/04 07:18:45;;;;;;;1.70;0.70;;;;;;;14.54;94.96;100867.28;5005916;28;20038;-63
2021/10/04 07:21:11;;;;;;;0.77;0.70;;;;;;;14.54;95.07;100862.59;5012076;28;20113;-64
2021/10/04 07:23:37;;;;;;;0.90;0.73;;;;;;;14.60;95.04;100874.66;5007868;28;20475;-64
2021/10/04 07:26:04;;;;;;;0.80;0.70;;;;;;;14.65;94.90;100884.38;5007728;28;20105;-64
2021/10/04 07:28:30;;;;;;;1.90;1.10;;;;;;;14.70;94.50;100894.88;5003174;28;20042;-64
2021/10/04 07:30:56;;;;;;;3.25;0.80;;;;;;;14.76;94.43;100906.91;5020712;28;20038;-64
2021/10/04 07:33:22;;;;;;;1.02;0.68;;;;;;;14.82;93.94;100898.06;5008282;28;20593;-64
2021/10/04 07:35:50;;;;;;;1.17;0.60;;;;;;;14.85;94.59;100905.44;5007957;28;20434;-63
2021/10/04 07:38:17;;;;;;;2.28;0.70;;;;;;;14.91;94.30;100916.72;5001053;28;20088;-64
2021/10/04 07:40:43;;;;;;;1.02;0.80;;;;;;;14.97;94.28;100915.19;5018122;28;20389;-65
2021/10/04 07:43:08;;;;;;;0.93;0.63;;;;;;;15.00;93.69;100909.03;5008615;28;20041;-63
2021/10/04 07:45:35;;;;;;;1.52;0.60;;;;;;;14.99;93.72;100907.47;5008772;28;20490;-63
2021/10/04 07:48:01;;;;;;;5.07;0.90;;;;;;;15.01;93.18;100905.16;5008508;28;20055;-62
2021/10/04 07:50:26;;;;;;;2.17;0.55;;;;;;;15.03;92.86;100929.97;5013179;28;20482;-63
2021/10/04 07:52:52;;;;;;;2.53;0.90;;;;;;;15.00;93.49;100933.44;5006391;28;20048;-66
2021/10/04 07:55:19;;;;;;;3.88;0.90;;;;;;;15.00;93.34;100928.78;5006490;28;20096;-64
2021/10/04 07:57:48;;;;;;;0.90;0.77;;;;;;;15.07;93.51;100947.84;5015217;28;20517;-64
2021/10/04 08:00:15;;;;;;;1.23;0.52;;;;;;;15.05;93.86;100950.16;5008364;28;20030;-64
2021/10/04 08:02:41;;;;;;;1.52;0.80;;;;;;;15.13;93.86;100945.53;5009495;28;20038;-64
2021/10/04 08:05:06;;;;;;;1.77;0.63;;;;;;;15.21;93.43;100944.44;5013642;28;20394;-62
2021/10/04 08:07:32;;;;;;;0.68;0.52;;;;;;;15.27;92.76;100940.97;5003727;28;20092;-67
2021/10/04 08:09:58;;;;;;;0.98;0.60;;;;;;;15.32;92.78;100937.13;5001102;28;20025;-64
2021/10/04 08:12:25;;;;;;;2.85;0.90;;;;;;;15.44;92.67;100936.06;5000851;28;20045;-64
2021/10/04 08:14:52;;;;;;;2.97;0.70;;;;;;;15.56;92.16;100941.16;5033743;22;20068;-69
2021/10/04 08:17:17;;;;;;;0.82;0.70;;;;;;;15.57;91.33;100945.41;5027450;28;20123;-70
2021/10/04 08:19:43;;;;;;;1.63;0.60;;;;;;;15.68;90.82;100943.56;5030966;28;20097;-69
2021/10/04 08:22:09;;;;;;;0.95;0.65;;;;;;;15.71;90.41;100959.06;5031505;28;20057;-69
2021/10/04 08:24:35;;;;;;;2.08;0.70;;;;;;;15.82;90.53;100949.03;5029711;28;20025;-70
2021/10/04 08:27:01;;;;;;;1.60;0.60;;;;;;;15.86;90.60;100950.59;5019509;28;20478;-68
2021/10/04 08:29:26;;;;;;;0.80;0.57;;;;;;;15.98;89.92;100942.09;4998482;28;20061;-69
2021/10/04 08:31:52;;;;;;;1.08;0.52;;;;;;;16.07;88.87;100945.22;5013310;28;20104;-70
2021/10/04 08:34:17;;;;;;;0.70;0.60;;;;;;;16.09;88.40;100942.13;5016505;28;20022;-69
2021/10/04 08:36:43;;;;;;;2.92;0.68;;;;;;;16.15;87.47;100946.81;5009112;28;20045;-68
2021/10/04 08:39:08;;;;;;;0.82;0.65;;;;;;;16.19;86.73;100952.25;5012478;28;20426;-69
2021/10/04 08:41:35;;;;;;;0.75;0.70;;;;;;;16.20;86.90;100949.13;4996571;28;20053;-68
2021/10/04 08:44:06;;;;;;;1.15;0.70;;;;;;;16.22;86.81;100935.94;5011553;28;20034;-68
2021/10/04 08:46:37;;;;;;;1.77;1.27;;;;;;;16.22;87.27;100933.22;5015974;28;20048;-67
2021/10/04 08:49:03;;;;;;;1.50;0.88;;;;;;;16.22;86.09;100932.44;5013313;28;20363;-69
2021/10/04 08:51:28;;;;;;;0.77;0.45;;;;;;;16.20;86.03;100927.41;5011390;28;20037;-69
2021/10/04 08:53:54;;;;;;;0.65;0.57;;;;;;;16.22;87.39;100941.38;5019696;28;20482;-68
2021/10/04 08:56:19;;;;;;;0.57;0.50;;;;;;;16.25;87.01;100927.03;5012785;28;20037;-68
2021/10/04 08:58:45;;;;;;;2.35;0.65;;;;;;;16.31;86.91;100932.84;5009595;28;20143;-69
2021/10/04 09:01:10;;;;;;;0.60;0.60;;;;;;;16.39;86.90;100934.44;5020331;28;20030;-69
2021/10/04 09:03:50;;;;;;;0.70;0.47;;;;;;;16.43;86.72;100937.94;5027879;28;20045;-68
2021/10/04 09:06:25;;;;;;;1.17;0.47;;;;;;;16.44;86.72;100946.84;5004880;28;20030;-69
2021/10/04 09:09:10;;;;;;;0.35;0.30;;;;;;;16.45;86.12;100953.84;5003048;28;20402;-68
2021/10/04 09:11:38;;;;;;;0.60;0.40;;;;;;;16.42;85.86;100973.63;5014124;28;20038;-69
2021/10/04 09:14:11;;;;;;;0.52;0.45;;;;;;;16.41;85.39;100955.78;5020560;28;20033;-67
2021/10/04 09:17:08;;;;;;;0.80;0.60;;;;;;;16.28;85.76;100969.75;5018238;28;20457;-68
2021/10/04 09:19:39;;;;;;;2.70;0.70;;;;;;;16.28;86.25;100964.31;5023207;28;20091;-68
2021/10/04 09:22:13;;;;;;;0.60;0.55;;;;;;;16.33;86.52;100957.72;5023748;28;20036;-68
2021/10/04 09:24:59;;;;;;;0.40;0.40;;;;;;;16.39;86.51;100961.63;5004286;28;20613;-68
2021/10/04 09:27:47;;;;;;;0.80;0.45;;;;;;;16.48;85.83;100953.06;5011046;28;20038;-68
2021/10/04 09:30:24;;;;;;;1.35;0.63;;;;;;;16.41;86.68;100947.63;5013057;28;20033;-69
2021/10/04 09:32:52;;;;;;;3.03;0.50;;;;;;;16.48;86.41;100943.00;5015927;28;20037;-68
2021/10/04 09:35:24;;;;;;;1.27;0.52;;;;;;;16.53;85.99;100950.00;5009782;28;20041;-69
2021/10/04 09:38:15;;;;;;;0.70;0.40;;;;;;;16.58;85.29;100961.28;5023050;28;20038;-69
2021/10/04 09:40:47;;;;;;;0.25;0.22;;;;;;;16.55;85.32;100962.03;5004898;28;20037;-68
2021/10/04 09:43:28;;;;;;;0.50;0.30;;;;;;;16.60;84.64;100963.59;5022661;28;20076;-68
2021/10/04 09:46:00;;;;;;;0.88;0.50;;;;;;;16.58;85.81;100971.38;5018823;28;20542;-68
2021/10/04 09:48:26;;;;;;;0.30;0.30;;;;;;;16.59;85.77;100962.81;4995647;28;20083;-68
2021/10/04 09:50:52;;;;;;;0.40;0.40;;;;;;;16.58;86.77;100966.72;5012309;28;20513;-67
2021/10/04 09:53:17;;;;;;;1.30;0.50;;;;;;;16.65;86.49;100965.91;5023331;28;20042;-70
2021/10/04 09:55:45;;;;;;;1.83;1.38;;;;;;;16.67;86.26;100971.75;5015304;28;20041;-67
2021/10/04 09:58:19;;;;;;;0.35;0.35;;;;;;;16.69;84.82;100972.16;5009249;28;20088;-68
2021/10/04 10:00:58;;;;;;;2.13;0.40;;;;;;;16.69;85.16;100966.72;5018765;28;20037;-68
2021/10/04 10:03:27;;;;;;;0.22;0.22;;;;;;;16.73;85.29;100965.56;5012517;28;20053;-67
2021/10/04 10:05:58;;;;;;;0.50;0.30;;;;;;;16.83;85.33;100964.78;5012091;28;20029;-70
2021/10/04 10:08:25;;;;;;;0.97;0.43;;;;;;;16.84;86.09;100960.13;5014216;28;20045;-67
2021/10/04 10:10:54;;;;;;;1.00;0.40;;;;;;;16.81;84.85;100958.94;5001750;28;20116;-68
2021/10/04 10:13:22;;;;;;;0.93;0.47;;;;;;;16.85;84.48;100967.88;5012331;28;20036;-67
2021/10/04 10:15:57;;;;;;;0.63;0.47;;;;;;;16.86;84.70;100966.72;5004584;28;20034;-68
2021/10/04 10:18:41;;;;;;;0.73;0.43;;;;;;;16.93;83.16;100955.84;5002954;28;20033;-67
2021/10/04 10:21:09;;;;;;;0.30;0.30;;;;;;;16.86;82.89;100955.81;5001865;28;20498;-68
2021/10/04 10:23:45;;;;;;;0.68;0.45;;;;;;;16.90;83.67;100972.16;5012611;28;20025;-70
2021/10/04 10:26:45;;;;;;;0.50;0.32;;;;;;;16.98;83.35;100962.81;5008748;28;20034;-68
2021/10/04 10:29:15;;;;;;;0.70;0.40;;;;;;;17.05;83.73;100965.56;5005756;28;20143;-70
2021/10/04 10:31:50;;;;;;;2.00;0.40;;;;;;;17.04;83.21;100964.75;5009038;28;20498;-68
2021/10/04 10:34:24;;;;;;;1.35;0.38;;;;;;;17.01;83.40;100964.78;5014087;28;20037;-67
2021/10/04 10:36:56;;;;;;;1.98;0.40;;;;;;;17.01;82.73;100970.22;5016080;28;20026;-68
2021/10/04 10:39:47;;;;;;;0.80;0.22;;;;;;;16.93;83.61;100971.38;5004664;28;20128;-67
2021/10/04 10:43:01;;;;;;;0.32;0.32;;;;;;;16.93;82.74;100971.38;5010693;28;20033;-68
2021/10/04 10:45:50;;;;;;;1.92;0.28;;;;;;;16.92;82.32;100972.53;4954348;28;20062;-67
2021/10/04 10:48:17;;;;;;;0.73;0.55;;;;;;;16.91;83.45;100982.66;4965609;28;20035;-68
2021/10/04 10:50:48;;;;;;;0.30;0.20;;;;;;;16.96;83.91;100978.75;5008355;28;20060;-68
2021/10/04 10:53:28;;;;;;;0.25;0.22;;;;;;;17.00;84.61;100996.66;5017914;28;20168;-68
2021/10/04 10:55:57;;;;;;;2.42;0.28;;;;;;;17.09;82.48;100986.13;5022499;28;20064;-69
2021/10/04 10:58:29;;;;;;;1.10;0.30;;;;;;;17.13;82.75;100983.41;5028103;28;20103;-68
2021/10/04 11:01:13;;;;;;;0.40;0.40;;;;;;;17.14;83.51;100991.19;4994044;28;20184;-68
2021/10/04 11:03:49;;;;;;;0.75;0.20;;;;;;;17.23;82.82;100988.06;5006372;28;20030;-68
2021/10/04 11:06:15;;;;;;;0.77;0.40;;;;;;;17.26;82.73;100991.97;5014423;28;20034;-68
2021/10/04 11:08:43;;;;;;;0.35;0.35;;;;;;;17.18;81.57;101007.53;5011701;28;20660;-69
2021/10/04 11:11:12;;;;;;;0.52;0.30;;;;;;;17.21;81.85;101006.72;4997453;28;20030;-68
2021/10/04 11:13:38;;;;;;;1.65;0.38;;;;;;;17.25;81.71;101004.03;5010341;28;20036;-68
2021/10/04 11:16:10;;;;;;;0.55;0.28;;;;;;;17.30;81.88;101012.56;4980997;28;20543;-68
2021/10/04 11:18:38;;;;;;;1.17;0.40;;;;;;;17.40;82.18;101008.28;5021560;28;20060;-68
2021/10/04 11:21:06;;;;;;;0.30;0.20;;;;;;;17.41;81.32;100997.00;5011634;28;20498;-71
2021/10/04 11:23:32;;;;;;;0.30;0.30;;;;;;;17.41;80.30;101002.44;5015923;28;20112;-67
2021/10/04 11:25:57;;;;;;;0.68;0.30;;;;;;;17.39;80.01;101001.25;5009194;28;20123;-67